createdAt,value
2018-01-08T00:00:14.954Z,3.70
2018-01-08T00:02:43.799Z,3.60
2018-01-08T00:05:13.407Z,3.60
2018-01-08T00:07:42.219Z,3.50
2018-01-08T00:10:19.844Z,3.60
2018-01-08T00:12:48.666Z,3.80
2018-01-08T00:15:18.275Z,3.80
2018-01-08T00:17:52.063Z,3.70
2018-01-08T00:20:20.899Z,3.80
2018-01-08T00:22:49.723Z,3.80
2018-01-08T00:25:18.559Z,3.80
2018-01-08T00:27:48.147Z,4.00
2018-01-08T00:30:17.015Z,3.90
2018-01-08T00:32:45.845Z,4.00
2018-01-08T00:35:15.444Z,4.00
2018-01-08T00:37:44.300Z,3.90
2018-01-08T00:40:13.123Z,3.90
2018-01-08T00:42:41.967Z,3.90
2018-01-08T00:45:10.804Z,3.90
2018-01-08T00:47:39.662Z,3.90
2018-01-08T00:50:09.274Z,3.90
2018-01-08T00:52:38.084Z,3.80
2018-01-08T00:55:06.898Z,3.80
2018-01-08T00:57:35.759Z,3.80
2018-01-08T01:00:04.721Z,3.80
2018-01-08T01:02:34.442Z,3.90
2018-01-08T01:05:04.074Z,3.80
2018-01-08T01:07:32.906Z,3.80
2018-01-08T01:10:01.763Z,3.80
2018-01-08T01:12:30.610Z,3.80
2018-01-08T01:14:59.455Z,3.80
2018-01-08T01:17:28.279Z,3.80
2018-01-08T01:19:57.109Z,3.90
2018-01-08T01:22:25.945Z,3.90
2018-01-08T01:24:54.778Z,3.80
2018-01-08T01:27:23.618Z,3.70
2018-01-08T01:29:52.442Z,3.60
2018-01-08T01:32:22.059Z,3.80
2018-01-08T01:34:50.875Z,3.70
2018-01-08T01:37:19.702Z,3.70
2018-01-08T01:39:48.551Z,3.70
2018-01-08T01:42:17.373Z,3.70
2018-01-08T01:44:46.200Z,3.80
2018-01-08T01:47:15.830Z,3.70
2018-01-08T01:49:44.677Z,3.70
2018-01-08T01:52:13.510Z,3.80
2018-01-08T01:54:42.359Z,3.80
2018-01-08T01:57:11.182Z,3.80
2018-01-08T01:59:40.151Z,3.80
2018-01-08T02:02:09.783Z,3.70
2018-01-08T02:04:39.412Z,3.80
2018-01-08T02:07:08.279Z,3.70
2018-01-08T02:09:37.120Z,3.90
2018-01-08T02:12:05.931Z,3.90
2018-01-08T02:14:35.230Z,3.90
2018-01-08T02:17:04.826Z,3.80
2018-01-08T02:19:33.770Z,3.70
2018-01-08T02:22:02.607Z,3.80
2018-01-08T02:24:31.438Z,3.80
2018-01-08T02:27:00.282Z,3.80
2018-01-08T02:29:29.130Z,3.80
2018-01-08T02:31:57.967Z,3.70
2018-01-08T02:34:26.798Z,3.60
2018-01-08T02:36:55.634Z,3.60
2018-01-08T02:39:24.679Z,3.60
2018-01-08T02:41:53.533Z,3.70
2018-01-08T02:44:22.381Z,3.70
2018-01-08T02:46:52.023Z,3.70
2018-01-08T02:49:21.125Z,3.70
2018-01-08T02:51:49.971Z,3.70
2018-01-08T02:54:19.697Z,3.80
2018-01-08T02:56:48.523Z,3.80
2018-01-08T02:59:19.003Z,4.00
2018-01-08T03:01:48.602Z,4.00
2018-01-08T03:04:17.414Z,4.00
2018-01-08T03:06:46.262Z,4.00
2018-01-08T03:09:15.110Z,3.90
2018-01-08T03:11:43.976Z,4.00
2018-01-08T03:14:12.803Z,3.90
2018-01-08T03:16:41.643Z,4.00
2018-01-08T03:19:11.244Z,4.00
2018-01-08T03:21:40.862Z,4.00
2018-01-08T03:24:10.471Z,3.90
2018-01-08T03:26:40.107Z,3.90
2018-01-08T03:29:08.953Z,3.90
2018-01-08T03:31:38.651Z,4.00
2018-01-08T03:34:07.535Z,3.90
2018-01-08T03:36:36.359Z,3.90
2018-01-08T03:39:05.191Z,4.00
2018-01-08T03:41:34.027Z,3.90
2018-01-08T03:44:02.866Z,3.90
2018-01-08T03:46:32.502Z,4.00
2018-01-08T03:49:01.367Z,4.00
2018-01-08T04:01:16.766Z,3.60
2018-01-08T04:03:45.614Z,3.50
2018-01-08T04:06:14.436Z,3.70
2018-01-08T04:08:44.293Z,3.90
2018-01-08T04:11:13.124Z,3.80
2018-01-08T04:13:41.947Z,4.00
2018-01-08T04:16:11.546Z,4.00
2018-01-08T04:18:41.183Z,4.10
2018-01-08T04:21:10.043Z,4.00
2018-01-08T04:23:38.874Z,4.00
2018-01-08T04:26:07.703Z,4.10
2018-01-08T04:28:36.548Z,4.00
2018-01-08T04:31:05.433Z,3.90
2018-01-08T04:33:34.249Z,3.90
2018-01-08T04:36:03.099Z,3.90
2018-01-08T04:38:31.941Z,3.90
2018-01-08T04:41:00.825Z,3.90
2018-01-08T04:43:29.726Z,4.00
2018-01-08T04:45:59.331Z,4.10
2018-01-08T04:48:28.145Z,4.00
2018-01-08T04:50:57.022Z,4.10
2018-01-08T04:53:25.858Z,4.10
2018-01-08T04:55:54.689Z,4.00
2018-01-08T04:58:23.529Z,4.00
2018-01-08T05:00:53.131Z,4.00
2018-01-08T05:03:21.988Z,3.90
2018-01-08T05:05:51.567Z,4.00
2018-01-08T05:08:20.428Z,3.90
2018-01-08T05:10:49.254Z,4.00
2018-01-08T05:13:18.113Z,4.00
2018-01-08T05:15:47.724Z,4.00
2018-01-08T05:18:17.370Z,4.00
2018-01-08T05:20:46.210Z,4.00
2018-01-08T05:23:15.038Z,4.00
2018-01-08T05:25:43.890Z,4.00
2018-01-08T05:28:12.729Z,4.00
2018-01-08T05:30:41.906Z,4.00
2018-01-08T05:33:10.709Z,4.00
2018-01-08T05:35:40.089Z,4.00
2018-01-08T05:38:09.678Z,4.00
2018-01-08T05:40:38.535Z,4.00
2018-01-08T05:43:07.369Z,4.00
2018-01-08T05:45:36.224Z,3.90
2018-01-08T05:48:05.816Z,3.90
2018-01-08T05:50:34.656Z,3.80
2018-01-08T05:53:04.047Z,4.00
2018-01-08T05:55:32.916Z,3.90
2018-01-08T05:58:02.598Z,3.90
2018-01-08T06:00:31.437Z,3.90
2018-01-08T06:03:00.278Z,3.90
2018-01-08T06:05:29.148Z,3.90
2018-01-08T06:07:58.002Z,3.80
2018-01-08T06:10:26.856Z,3.80
2018-01-08T06:12:55.689Z,3.70
2018-01-08T06:15:24.535Z,3.60
2018-01-08T06:17:54.140Z,3.60
2018-01-08T06:20:22.981Z,3.60
2018-01-08T06:22:51.819Z,3.60
2018-01-08T06:25:21.444Z,3.70
2018-01-08T06:27:51.077Z,3.60
2018-01-08T06:30:19.909Z,3.60
2018-01-08T06:32:48.755Z,3.60
2018-01-08T06:35:17.611Z,3.60
2018-01-08T06:37:47.222Z,3.60
2018-01-08T06:40:16.058Z,3.50
2018-01-08T06:42:45.662Z,3.60
2018-01-08T06:45:14.666Z,3.60
2018-01-08T06:47:44.329Z,3.60
2018-01-08T06:50:13.926Z,3.60
2018-01-08T06:52:46.103Z,3.60
2018-01-08T06:55:18.840Z,3.60
2018-01-08T06:57:51.719Z,3.60
2018-01-08T07:00:21.015Z,3.50
2018-01-08T07:02:49.837Z,3.70
2018-01-08T07:05:18.689Z,3.70
2018-01-08T07:07:47.519Z,3.70
2018-01-08T07:10:16.355Z,3.70
2018-01-08T07:12:45.192Z,3.70
2018-01-08T07:15:14.077Z,3.80
2018-01-08T07:17:43.645Z,3.70
2018-01-08T07:20:12.480Z,3.60
2018-01-08T07:22:41.823Z,3.70
2018-01-08T07:25:12.031Z,3.70
2018-01-08T07:27:41.673Z,3.70
2018-01-08T07:30:10.749Z,3.60
2018-01-08T07:32:39.563Z,3.60
2018-01-08T07:35:08.409Z,3.60
2018-01-08T07:37:38.045Z,3.60
2018-01-08T07:40:06.874Z,3.50
2018-01-08T07:42:36.788Z,3.50
2018-01-08T07:45:05.618Z,3.40
2018-01-08T07:47:35.241Z,3.30
2018-01-08T07:50:05.426Z,3.30
2018-01-08T07:52:34.254Z,3.30
2018-01-08T07:55:04.298Z,3.40
2018-01-08T07:57:33.145Z,3.40
2018-01-08T08:00:03.883Z,3.30
2018-01-08T08:02:32.737Z,3.30
2018-01-08T08:05:01.586Z,3.30
2018-01-08T08:07:31.530Z,3.40
2018-01-08T08:10:00.369Z,3.30
2018-01-08T08:12:30.558Z,3.40
2018-01-08T08:14:59.407Z,3.30
2018-01-08T08:17:28.263Z,3.30
2018-01-08T08:20:00.302Z,3.30
2018-01-08T08:22:29.372Z,3.30
2018-01-08T08:24:58.196Z,3.40
2018-01-08T08:27:27.032Z,3.40
2018-01-08T08:29:55.867Z,3.40
2018-01-08T08:32:24.713Z,3.40
2018-01-08T08:34:53.555Z,3.50
2018-01-08T08:37:23.198Z,3.50
2018-01-08T08:39:52.058Z,3.40
2018-01-08T08:42:21.666Z,3.30
2018-01-08T08:44:51.241Z,3.30
2018-01-08T08:47:20.078Z,3.30
2018-01-08T08:49:48.935Z,3.30
2018-01-08T08:52:19.383Z,3.40
2018-01-08T08:54:48.980Z,3.50
2018-01-08T08:57:18.351Z,3.50
2018-01-08T08:59:47.230Z,3.60
2018-01-08T09:02:16.063Z,3.60
2018-01-08T09:04:45.666Z,3.80
2018-01-08T09:07:15.935Z,3.90
2018-01-08T09:09:44.793Z,3.80
2018-01-08T09:12:13.647Z,3.90
2018-01-08T09:14:42.487Z,4.10
2018-01-08T09:17:11.359Z,4.30
2018-01-08T09:19:40.969Z,4.40
2018-01-08T09:22:09.817Z,4.30
2018-01-08T09:24:40.201Z,4.60
2018-01-08T09:27:10.284Z,4.60
2018-01-08T09:29:39.885Z,5.00
2018-01-08T09:32:09.482Z,5.30
2018-01-08T09:34:38.388Z,5.30
2018-01-08T09:37:08.003Z,6.30
2018-01-08T09:39:37.642Z,6.90
2018-01-08T09:42:07.272Z,7.30
2018-01-08T09:44:36.858Z,7.90
2018-01-08T09:47:05.710Z,7.90
2018-01-08T09:49:34.573Z,8.50
2018-01-08T09:52:03.409Z,9.10
2018-01-08T09:54:32.256Z,9.40
2018-01-08T09:57:01.112Z,9.40
2018-01-08T09:59:30.719Z,10.10
2018-01-08T10:02:00.351Z,10.10
2018-01-08T10:04:41.070Z,10.00
2018-01-08T10:07:28.253Z,9.80
2018-01-08T10:10:14.993Z,10.00
2018-01-08T10:13:01.678Z,10.20
2018-01-08T10:15:49.152Z,10.20
2018-01-08T10:18:25.446Z,10.10
2018-01-08T10:20:54.027Z,10.20
2018-01-08T10:23:22.870Z,10.20
2018-01-08T10:25:52.494Z,9.70
2018-01-08T10:28:22.132Z,9.80
2018-01-08T10:30:50.971Z,9.80
2018-01-08T10:33:19.929Z,10.10
2018-01-08T10:35:48.798Z,10.20
2018-01-08T10:38:17.743Z,10.20
2018-01-08T10:40:46.583Z,10.20
2018-01-08T10:43:21.791Z,10.40
2018-01-08T10:45:56.396Z,10.40
2018-01-08T10:48:30.978Z,10.60
2018-01-08T10:51:06.345Z,10.00
2018-01-08T10:53:36.718Z,10.00
2018-01-08T10:56:06.340Z,9.90
2018-01-08T10:58:35.947Z,10.30
2018-01-08T11:01:11.289Z,10.60
2018-01-08T11:03:46.565Z,10.90
2018-01-08T11:06:15.452Z,10.90
2018-01-08T11:08:45.023Z,10.70
2018-01-08T11:11:14.671Z,10.60
2018-01-08T11:13:43.538Z,10.60
2018-01-08T11:16:12.395Z,10.60
2018-01-08T11:18:41.252Z,10.40
2018-01-08T11:21:10.097Z,10.30
2018-01-08T11:23:39.742Z,10.50
2018-01-08T11:26:08.662Z,10.50
2018-01-08T11:28:37.513Z,10.80
2018-01-08T11:31:06.354Z,11.10
2018-01-08T11:33:35.992Z,11.80
2018-01-08T11:36:04.859Z,11.70
2018-01-08T11:38:34.459Z,11.20
2018-01-08T11:41:04.109Z,11.20
2018-01-08T11:43:32.933Z,11.10
2018-01-08T11:46:01.803Z,10.60
2018-01-08T11:48:30.654Z,10.00
2018-01-08T11:50:59.537Z,9.90
2018-01-08T11:53:29.127Z,10.40
2018-01-08T11:55:58.756Z,10.50
2018-01-08T11:58:27.612Z,10.40
2018-01-08T12:00:57.225Z,10.90
2018-01-08T12:03:26.843Z,11.30
2018-01-08T12:05:55.711Z,11.30
2018-01-08T12:08:24.554Z,12.10
2018-01-08T12:10:53.415Z,12.30
2018-01-08T12:13:22.405Z,12.40
2018-01-08T12:15:52.021Z,12.10
2018-01-08T12:18:20.878Z,12.10
2018-01-08T12:20:50.479Z,11.80
2018-01-08T12:23:20.263Z,11.70
2018-01-08T12:25:49.094Z,11.40
2018-01-08T12:28:18.715Z,10.90
2018-01-08T12:30:48.347Z,10.40
2018-01-08T12:33:17.205Z,10.30
2018-01-08T12:35:46.812Z,9.80
2018-01-08T12:38:16.415Z,9.30
2018-01-08T12:40:46.024Z,9.00
2018-01-08T12:43:15.639Z,8.40
2018-01-08T12:45:44.504Z,8.30
2018-01-08T12:48:15.019Z,7.90
2018-01-08T12:50:44.625Z,7.70
2018-01-08T12:53:14.231Z,7.40
2018-01-08T12:55:43.886Z,7.20
2018-01-08T12:58:13.642Z,7.20
2018-01-08T13:00:42.486Z,7.00
2018-01-08T13:03:11.334Z,6.90
2018-01-08T13:05:40.982Z,6.60
2018-01-08T13:08:09.808Z,6.50
2018-01-08T13:10:38.655Z,6.70
2018-01-08T13:13:07.500Z,6.70
2018-01-08T13:15:36.341Z,6.80
2018-01-08T13:20:40.374Z,6.80
2018-01-08T13:23:09.242Z,6.70
2018-01-08T13:25:38.114Z,6.80
2018-01-08T13:28:07.720Z,6.60
2018-01-08T13:30:37.326Z,6.70
2018-01-08T13:33:06.460Z,6.60
2018-01-08T13:35:35.297Z,6.70
2018-01-08T13:38:04.906Z,6.90
2018-01-08T13:40:33.738Z,6.80
2018-01-08T13:43:02.600Z,6.70
2018-01-08T13:45:32.239Z,6.60
2018-01-08T13:48:01.097Z,6.60
2018-01-08T13:50:30.731Z,6.50
2018-01-08T13:52:59.571Z,6.40
2018-01-08T13:55:28.431Z,6.50
2018-01-08T13:57:57.267Z,6.40
2018-01-08T14:00:26.899Z,6.20
2018-01-08T14:02:57.423Z,6.10
2018-01-08T14:05:27.015Z,6.00
2018-01-08T14:07:56.636Z,6.00
2018-01-08T14:10:26.262Z,5.90
2018-01-08T14:12:55.097Z,5.90
2018-01-08T14:15:23.952Z,5.90
2018-01-08T14:20:27.859Z,6.00
2018-01-08T14:22:56.705Z,6.00
2018-01-08T14:25:25.538Z,5.90
2018-01-08T14:27:54.377Z,5.80
2018-01-08T14:30:23.214Z,5.90
2018-01-08T14:32:52.106Z,5.90
2018-01-08T14:35:21.722Z,6.00
2018-01-08T14:37:50.664Z,5.90
2018-01-08T14:40:19.458Z,5.90
2018-01-08T14:42:49.065Z,5.90
2018-01-08T14:45:17.925Z,5.90
2018-01-08T14:47:46.760Z,5.90
2018-01-08T14:50:15.622Z,5.80
2018-01-08T14:52:45.234Z,5.90
2018-01-08T14:55:14.870Z,5.90
2018-01-08T14:57:43.718Z,5.80
2018-01-08T15:00:13.337Z,5.70
2018-01-08T15:02:42.967Z,5.60
2018-01-08T15:05:11.825Z,5.60
2018-01-08T15:07:41.438Z,5.50
2018-01-08T15:10:11.060Z,5.50
2018-01-08T15:12:40.106Z,5.50
2018-01-08T15:15:09.750Z,5.60
2018-01-08T15:17:39.356Z,5.60
2018-01-08T15:20:08.991Z,5.50
2018-01-08T15:22:37.834Z,5.50
2018-01-08T15:25:06.663Z,5.40
2018-01-08T15:27:35.522Z,5.50
2018-01-08T15:30:07.947Z,5.40
2018-01-08T15:32:36.783Z,5.40
2018-01-08T15:35:06.384Z,5.50
2018-01-08T15:37:35.226Z,5.40
2018-01-08T15:40:04.083Z,5.40
2018-01-08T15:42:33.705Z,5.40
2018-01-08T15:45:02.558Z,5.40
2018-01-08T15:47:31.402Z,5.50
2018-01-08T15:50:01.570Z,5.50
2018-01-08T15:52:30.407Z,5.50
2018-01-08T15:54:59.253Z,5.50
2018-01-08T15:57:28.085Z,5.50
2018-01-08T15:59:56.955Z,5.40
2018-01-08T16:02:25.778Z,5.40
2018-01-08T16:04:55.418Z,5.40
2018-01-08T16:07:24.322Z,5.40
2018-01-08T16:09:53.176Z,5.40
2018-01-08T16:12:22.796Z,5.30
2018-01-08T16:14:51.853Z,5.30
2018-01-08T16:17:21.525Z,5.20
2018-01-08T16:19:50.382Z,5.10
2018-01-08T16:22:20.029Z,5.10
2018-01-08T16:24:48.903Z,5.00
2018-01-08T16:27:17.747Z,5.00
2018-01-08T16:29:46.630Z,5.10
2018-01-08T16:32:15.472Z,5.00
2018-01-08T16:34:44.317Z,5.00
2018-01-08T16:37:13.927Z,4.90
2018-01-08T16:39:43.615Z,4.90
2018-01-08T16:42:12.436Z,4.90
2018-01-08T16:44:42.066Z,4.80
2018-01-08T16:47:10.975Z,4.80
2018-01-08T16:49:39.778Z,4.90
2018-01-08T16:52:08.956Z,4.80
2018-01-08T16:54:37.784Z,4.70
2018-01-08T16:57:07.891Z,4.80
2018-01-08T16:59:37.645Z,4.80
2018-01-08T17:02:06.524Z,4.70
2018-01-08T17:04:35.420Z,4.90
2018-01-08T17:07:05.033Z,4.80
2018-01-08T17:09:33.875Z,4.70
2018-01-08T17:12:03.563Z,4.70
2018-01-08T17:14:32.390Z,4.70
2018-01-08T17:17:02.039Z,4.70
2018-01-08T17:19:30.888Z,4.60
2018-01-08T17:22:00.155Z,4.80
2018-01-08T17:24:29.009Z,4.80
2018-01-08T17:26:57.897Z,4.70
2018-01-08T17:29:26.787Z,4.70
2018-01-08T17:31:55.671Z,4.70
2018-01-08T17:34:24.557Z,4.70
2018-01-08T17:36:53.407Z,4.70
2018-01-08T17:39:23.550Z,4.80
2018-01-08T17:41:53.194Z,4.90
2018-01-08T17:44:22.027Z,4.90
2018-01-08T17:46:51.677Z,5.10
2018-01-08T17:49:20.660Z,5.00
2018-01-08T18:04:54.516Z,5.00
2018-01-08T18:07:24.166Z,4.90
2018-01-08T18:09:53.562Z,4.80
2018-01-08T18:12:22.394Z,5.00
2018-01-08T18:14:51.272Z,5.10
2018-01-08T18:17:20.139Z,5.10
2018-01-08T18:19:49.014Z,5.20
2018-01-08T18:22:17.881Z,5.40
2018-01-08T18:24:47.521Z,5.30
2018-01-08T18:27:16.370Z,5.30
2018-01-08T18:29:46.014Z,5.10
2018-01-08T18:32:14.895Z,5.10
2018-01-08T18:34:43.787Z,5.10
2018-01-08T18:37:12.643Z,5.10
2018-01-08T18:39:42.287Z,5.10
2018-01-08T18:42:11.156Z,5.10
2018-01-08T18:44:40.019Z,5.10
2018-01-08T18:47:09.622Z,5.00
2018-01-08T18:49:38.474Z,5.00
2018-01-08T18:52:07.385Z,5.10
2018-01-08T18:54:36.223Z,5.10
2018-01-08T18:57:05.849Z,4.90
2018-01-08T18:59:35.451Z,4.90
2018-01-08T19:02:05.113Z,5.10
2018-01-08T19:04:33.976Z,5.00
2018-01-08T19:07:02.834Z,5.10
2018-01-08T19:09:31.671Z,5.10
2018-01-08T19:12:00.516Z,5.10
2018-01-08T19:14:30.197Z,4.90
2018-01-08T19:16:59.034Z,4.90
2018-01-08T19:19:27.871Z,5.00
2018-01-08T19:21:56.736Z,4.90
2018-01-08T19:24:25.580Z,5.00
2018-01-08T19:26:55.209Z,4.80
2018-01-08T19:29:24.093Z,4.80
2018-01-08T19:31:53.720Z,4.80
2018-01-08T19:34:22.603Z,4.80
2018-01-08T19:36:52.215Z,4.80
2018-01-08T19:39:21.285Z,4.80
2018-01-08T19:41:50.247Z,4.80
2018-01-08T19:44:19.136Z,4.90
2018-01-08T19:46:47.980Z,4.90
2018-01-08T19:49:16.845Z,4.90
2018-01-08T19:51:46.478Z,4.80
2018-01-08T19:54:15.368Z,4.70
2018-01-08T19:56:44.235Z,4.80
2018-01-08T19:59:14.431Z,4.90
2018-01-08T20:01:44.068Z,4.80
2018-01-08T20:04:12.915Z,4.80
2018-01-08T20:06:42.575Z,4.90
2018-01-08T20:09:11.561Z,4.90
2018-01-08T20:11:40.407Z,4.80
2018-01-08T20:14:09.255Z,4.90
2018-01-08T20:16:38.102Z,4.90
2018-01-08T20:19:06.955Z,4.80
2018-01-08T20:21:36.987Z,4.80
2018-01-08T20:24:05.843Z,4.80
2018-01-08T20:26:34.712Z,4.90
2018-01-08T20:29:03.555Z,4.90
2018-01-08T20:31:33.174Z,4.90
2018-01-08T20:34:02.812Z,5.00
2018-01-08T20:36:31.661Z,5.00
2018-01-08T20:39:01.282Z,5.10
2018-01-08T20:41:30.953Z,5.10
2018-01-08T20:43:59.795Z,5.10
2018-01-08T20:46:29.411Z,5.20
2018-01-08T20:49:00.594Z,5.20
2018-01-08T20:51:30.203Z,5.20
2018-01-08T20:53:59.811Z,5.10
2018-01-08T20:56:29.457Z,5.00
2018-01-08T20:58:58.299Z,5.00
2018-01-08T21:01:27.155Z,5.00
2018-01-08T21:03:55.980Z,5.00
2018-01-08T21:06:25.602Z,5.00
2018-01-08T21:08:55.212Z,5.10
2018-01-08T21:11:24.849Z,5.10
2018-01-08T21:13:53.706Z,5.00
2018-01-08T21:16:23.350Z,5.10
2018-01-08T21:18:52.209Z,5.10
2018-01-08T21:21:21.841Z,5.20
2018-01-08T21:23:50.704Z,5.20
2018-01-08T21:26:20.358Z,5.30
2018-01-08T21:28:49.195Z,5.20
2018-01-08T21:31:18.843Z,5.30
2018-01-08T21:33:47.704Z,5.30
2018-01-08T21:36:17.315Z,5.10
2018-01-08T21:38:46.273Z,5.10
2018-01-08T21:41:15.111Z,5.20
2018-01-08T21:43:43.971Z,5.30
2018-01-08T21:46:13.595Z,5.20
2018-01-08T21:48:43.239Z,5.20
2018-01-08T21:51:12.069Z,5.10
2018-01-08T21:53:41.695Z,5.30
2018-01-08T21:56:10.544Z,5.30
2018-01-08T21:58:39.379Z,5.30
2018-01-08T22:01:08.247Z,5.30
2018-01-08T22:03:37.866Z,5.30
2018-01-08T22:06:06.723Z,5.30
2018-01-08T22:08:36.341Z,5.40
2018-01-08T22:11:05.972Z,5.40
2018-01-08T22:13:35.591Z,5.40
2018-01-08T22:16:04.473Z,5.30
2018-01-08T22:18:33.317Z,5.30
2018-01-08T22:21:02.180Z,5.30
2018-01-08T22:23:31.036Z,5.20
2018-01-08T22:26:00.613Z,5.30
2018-01-08T22:28:30.235Z,5.30
2018-01-08T22:30:59.842Z,5.20
2018-01-08T22:33:29.465Z,5.10
2018-01-08T22:35:58.314Z,5.10
2018-01-08T22:38:27.154Z,5.20
2018-01-08T22:40:56.022Z,5.20
2018-01-08T22:43:24.907Z,5.20
2018-01-08T22:45:54.510Z,5.10
2018-01-08T22:48:24.149Z,5.10
2018-01-08T22:50:52.994Z,5.10
2018-01-08T22:53:21.826Z,5.20
2018-01-08T22:55:51.424Z,5.20
2018-01-08T22:58:21.053Z,5.20
2018-01-08T23:00:49.947Z,5.10
2018-01-08T23:03:19.631Z,5.20
2018-01-08T23:05:49.276Z,5.10
2018-01-08T23:08:18.114Z,5.10
2018-01-08T23:10:46.957Z,5.20
2018-01-08T23:13:15.802Z,5.10
2018-01-08T23:15:45.434Z,5.10
2018-01-08T23:18:14.259Z,5.10
2018-01-08T23:20:43.130Z,5.10
2018-01-08T23:23:11.982Z,5.10
2018-01-08T23:25:41.594Z,5.20
2018-01-08T23:28:11.206Z,5.20
2018-01-08T23:30:40.826Z,5.20
2018-01-08T23:33:09.685Z,5.10
2018-01-08T23:35:38.530Z,5.10
2018-01-08T23:38:07.413Z,5.10
2018-01-08T23:40:36.262Z,5.00
2018-01-08T23:43:05.907Z,4.90
2018-01-08T23:45:34.750Z,4.90
2018-01-08T23:48:03.583Z,4.90
2018-01-08T23:50:32.450Z,4.90
2018-01-08T23:53:01.282Z,4.90
2018-01-08T23:55:30.923Z,4.80
2018-01-08T23:57:59.754Z,4.80
